sensor_id;sensor_type;location;lat;lon;timestamp;temperature;humidity
82231;DHT22;71832;45.138;9.816;2023-08-08T00:00:18;19.00;47.90
82231;DHT22;71832;45.138;9.816;2023-08-08T00:02:46;19.10;48.30
82231;DHT22;71832;45.138;9.816;2023-08-08T00:05:14;19.10;46.40
82231;DHT22;71832;45.138;9.816;2023-08-08T00:07:44;19.20;45.80
82231;DHT22;71832;45.138;9.816;2023-08-08T00:10:12;19.30;45.70
82231;DHT22;71832;45.138;9.816;2023-08-08T00:12:40;19.30;44.70
82231;DHT22;71832;45.138;9.816;2023-08-08T00:15:07;19.40;45.30
82231;DHT22;71832;45.138;9.816;2023-08-08T00:17:36;19.40;44.20
82231;DHT22;71832;45.138;9.816;2023-08-08T00:20:04;19.30;43.90
82231;DHT22;71832;45.138;9.816;2023-08-08T00:22:34;19.40;44.00
82231;DHT22;71832;45.138;9.816;2023-08-08T00:25:02;19.40;45.50
82231;DHT22;71832;45.138;9.816;2023-08-08T00:27:31;19.40;45.60
82231;DHT22;71832;45.138;9.816;2023-08-08T00:29:59;19.40;45.50
82231;DHT22;71832;45.138;9.816;2023-08-08T00:32:27;19.40;44.90
82231;DHT22;71832;45.138;9.816;2023-08-08T00:34:56;19.40;44.70
82231;DHT22;71832;45.138;9.816;2023-08-08T00:37:25;19.50;44.70
82231;DHT22;71832;45.138;9.816;2023-08-08T00:39:53;19.50;45.80
82231;DHT22;71832;45.138;9.816;2023-08-08T00:42:22;19.50;45.40
82231;DHT22;71832;45.138;9.816;2023-08-08T00:44:50;19.50;44.70
82231;DHT22;71832;45.138;9.816;2023-08-08T00:47:17;19.50;44.10
82231;DHT22;71832;45.138;9.816;2023-08-08T00:49:46;19.40;47.50
82231;DHT22;71832;45.138;9.816;2023-08-08T00:52:16;19.40;47.90
82231;DHT22;71832;45.138;9.816;2023-08-08T00:54:45;19.40;48.40
82231;DHT22;71832;45.138;9.816;2023-08-08T00:57:13;19.30;51.10
82231;DHT22;71832;45.138;9.816;2023-08-08T00:59:42;19.30;50.90
82231;DHT22;71832;45.138;9.816;2023-08-08T01:02:11;19.30;51.70
82231;DHT22;71832;45.138;9.816;2023-08-08T01:04:39;19.30;52.40
82231;DHT22;71832;45.138;9.816;2023-08-08T01:07:52;19.20;52.50
82231;DHT22;71832;45.138;9.816;2023-08-08T01:10:03;19.20;52.90
82231;DHT22;71832;45.138;9.816;2023-08-08T01:13:06;19.10;53.50
82231;DHT22;71832;45.138;9.816;2023-08-08T01:15:38;19.10;53.40
82231;DHT22;71832;45.138;9.816;2023-08-08T01:18:09;19.00;54.60
82231;DHT22;71832;45.138;9.816;2023-08-08T01:20:38;19.00;53.40
82231;DHT22;71832;45.138;9.816;2023-08-08T01:23:16;19.00;53.20
82231;DHT22;71832;45.138;9.816;2023-08-08T01:25:47;19.00;53.00
82231;DHT22;71832;45.138;9.816;2023-08-08T01:28:20;19.10;52.90
82231;DHT22;71832;45.138;9.816;2023-08-08T01:30:49;19.10;54.10
82231;DHT22;71832;45.138;9.816;2023-08-08T01:33:18;19.10;54.40
82231;DHT22;71832;45.138;9.816;2023-08-08T01:35:53;19.10;55.70
82231;DHT22;71832;45.138;9.816;2023-08-08T01:38:29;19.10;55.20
82231;DHT22;71832;45.138;9.816;2023-08-08T01:41:00;19.10;55.10
82231;DHT22;71832;45.138;9.816;2023-08-08T01:43:30;19.10;56.00
82231;DHT22;71832;45.138;9.816;2023-08-08T01:45:58;19.10;56.80
82231;DHT22;71832;45.138;9.816;2023-08-08T01:48:28;19.00;57.50
82231;DHT22;71832;45.138;9.816;2023-08-08T01:50:56;18.90;57.80
82231;DHT22;71832;45.138;9.816;2023-08-08T01:53:25;18.80;58.50
82231;DHT22;71832;45.138;9.816;2023-08-08T01:55:54;18.70;59.30
82231;DHT22;71832;45.138;9.816;2023-08-08T01:58:22;18.60;58.90
82231;DHT22;71832;45.138;9.816;2023-08-08T02:00:51;18.50;58.00
82231;DHT22;71832;45.138;9.816;2023-08-08T02:03:19;18.30;57.60
82231;DHT22;71832;45.138;9.816;2023-08-08T02:05:47;18.30;57.50
82231;DHT22;71832;45.138;9.816;2023-08-08T02:08:15;18.20;58.70
82231;DHT22;71832;45.138;9.816;2023-08-08T02:10:45;18.20;59.30
82231;DHT22;71832;45.138;9.816;2023-08-08T02:13:13;18.20;58.00
82231;DHT22;71832;45.138;9.816;2023-08-08T02:15:42;18.20;56.50
82231;DHT22;71832;45.138;9.816;2023-08-08T02:18:10;18.20;56.20
82231;DHT22;71832;45.138;9.816;2023-08-08T02:20:38;18.30;54.70
82231;DHT22;71832;45.138;9.816;2023-08-08T02:23:07;18.30;53.70
82231;DHT22;71832;45.138;9.816;2023-08-08T02:25:35;18.40;53.60
82231;DHT22;71832;45.138;9.816;2023-08-08T02:28:02;18.50;52.40
82231;DHT22;71832;45.138;9.816;2023-08-08T02:30:30;18.50;51.50
82231;DHT22;71832;45.138;9.816;2023-08-08T02:32:57;18.50;51.30
82231;DHT22;71832;45.138;9.816;2023-08-08T02:35:25;18.60;51.00
82231;DHT22;71832;45.138;9.816;2023-08-08T02:37:53;18.70;52.70
82231;DHT22;71832;45.138;9.816;2023-08-08T02:40:22;18.70;52.80
82231;DHT22;71832;45.138;9.816;2023-08-08T02:42:50;18.60;53.70
82231;DHT22;71832;45.138;9.816;2023-08-08T02:45:18;18.60;54.10
82231;DHT22;71832;45.138;9.816;2023-08-08T02:47:45;18.50;54.60
82231;DHT22;71832;45.138;9.816;2023-08-08T02:50:13;18.50;54.60
82231;DHT22;71832;45.138;9.816;2023-08-08T02:52:41;18.50;55.10
82231;DHT22;71832;45.138;9.816;2023-08-08T02:55:09;18.50;55.60
82231;DHT22;71832;45.138;9.816;2023-08-08T02:57:39;18.50;56.70
82231;DHT22;71832;45.138;9.816;2023-08-08T03:00:08;18.40;57.40
82231;DHT22;71832;45.138;9.816;2023-08-08T03:02:38;18.30;57.50
82231;DHT22;71832;45.138;9.816;2023-08-08T03:05:07;18.30;57.20
82231;DHT22;71832;45.138;9.816;2023-08-08T03:07:36;18.30;58.20
82231;DHT22;71832;45.138;9.816;2023-08-08T03:10:05;18.30;57.70
82231;DHT22;71832;45.138;9.816;2023-08-08T03:12:33;18.30;57.60
82231;DHT22;71832;45.138;9.816;2023-08-08T03:15:02;18.40;57.90
82231;DHT22;71832;45.138;9.816;2023-08-08T03:17:31;18.40;59.10
82231;DHT22;71832;45.138;9.816;2023-08-08T03:20:01;18.30;59.20
82231;DHT22;71832;45.138;9.816;2023-08-08T03:22:30;18.20;59.00
82231;DHT22;71832;45.138;9.816;2023-08-08T03:24:59;18.10;58.50
82231;DHT22;71832;45.138;9.816;2023-08-08T03:27:27;18.10;58.60
82231;DHT22;71832;45.138;9.816;2023-08-08T03:29:56;18.00;58.90
82231;DHT22;71832;45.138;9.816;2023-08-08T03:32:25;18.00;59.10
82231;DHT22;71832;45.138;9.816;2023-08-08T03:34:53;17.90;60.00
82231;DHT22;71832;45.138;9.816;2023-08-08T03:37:22;18.00;60.10
82231;DHT22;71832;45.138;9.816;2023-08-08T03:39:51;18.00;60.60
82231;DHT22;71832;45.138;9.816;2023-08-08T03:42:19;17.80;60.70
82231;DHT22;71832;45.138;9.816;2023-08-08T03:44:48;17.80;61.30
82231;DHT22;71832;45.138;9.816;2023-08-08T03:47:17;17.70;61.80
82231;DHT22;71832;45.138;9.816;2023-08-08T03:49:46;17.60;62.50
82231;DHT22;71832;45.138;9.816;2023-08-08T03:52:13;17.60;62.70
82231;DHT22;71832;45.138;9.816;2023-08-08T03:54:42;17.60;62.80
82231;DHT22;71832;45.138;9.816;2023-08-08T03:57:11;17.50;63.00
82231;DHT22;71832;45.138;9.816;2023-08-08T03:59:39;17.50;62.30
82231;DHT22;71832;45.138;9.816;2023-08-08T04:02:07;17.40;62.00
82231;DHT22;71832;45.138;9.816;2023-08-08T04:04:35;17.40;62.10
82231;DHT22;71832;45.138;9.816;2023-08-08T04:07:03;17.40;62.30
82231;DHT22;71832;45.138;9.816;2023-08-08T04:09:31;17.20;62.70
82231;DHT22;71832;45.138;9.816;2023-08-08T04:12:00;17.20;62.20
82231;DHT22;71832;45.138;9.816;2023-08-08T04:14:28;17.20;60.90
82231;DHT22;71832;45.138;9.816;2023-08-08T04:16:56;17.30;59.80
82231;DHT22;71832;45.138;9.816;2023-08-08T04:19:24;17.40;60.40
82231;DHT22;71832;45.138;9.816;2023-08-08T04:21:52;17.50;59.70
82231;DHT22;71832;45.138;9.816;2023-08-08T04:24:20;17.50;59.90
82231;DHT22;71832;45.138;9.816;2023-08-08T04:26:48;17.50;60.30
82231;DHT22;71832;45.138;9.816;2023-08-08T04:29:16;17.50;59.50
82231;DHT22;71832;45.138;9.816;2023-08-08T04:31:43;17.50;59.20
82231;DHT22;71832;45.138;9.816;2023-08-08T04:34:11;17.50;59.00
82231;DHT22;71832;45.138;9.816;2023-08-08T04:36:38;17.50;59.70
82231;DHT22;71832;45.138;9.816;2023-08-08T04:39:06;17.50;60.10
82231;DHT22;71832;45.138;9.816;2023-08-08T04:41:33;17.40;60.70
82231;DHT22;71832;45.138;9.816;2023-08-08T04:44:02;17.40;60.90
82231;DHT22;71832;45.138;9.816;2023-08-08T04:46:30;17.40;60.90
82231;DHT22;71832;45.138;9.816;2023-08-08T04:48:58;17.40;60.60
82231;DHT22;71832;45.138;9.816;2023-08-08T04:51:27;17.40;61.20
82231;DHT22;71832;45.138;9.816;2023-08-08T04:53:54;17.40;61.20
82231;DHT22;71832;45.138;9.816;2023-08-08T04:56:22;17.40;62.20
82231;DHT22;71832;45.138;9.816;2023-08-08T04:58:49;17.40;63.70
82231;DHT22;71832;45.138;9.816;2023-08-08T05:01:17;17.40;63.40
82231;DHT22;71832;45.138;9.816;2023-08-08T05:03:47;17.50;62.10
82231;DHT22;71832;45.138;9.816;2023-08-08T05:06:17;17.50;60.40
82231;DHT22;71832;45.138;9.816;2023-08-08T05:08:45;17.60;60.40
82231;DHT22;71832;45.138;9.816;2023-08-08T05:11:14;17.80;61.00
82231;DHT22;71832;45.138;9.816;2023-08-08T05:13:43;17.80;61.40
82231;DHT22;71832;45.138;9.816;2023-08-08T05:16:12;17.90;62.80
82231;DHT22;71832;45.138;9.816;2023-08-08T05:18:40;18.00;63.40
82231;DHT22;71832;45.138;9.816;2023-08-08T05:21:11;18.00;61.60
82231;DHT22;71832;45.138;9.816;2023-08-08T05:23:40;18.10;62.40
82231;DHT22;71832;45.138;9.816;2023-08-08T05:26:08;18.10;62.10
82231;DHT22;71832;45.138;9.816;2023-08-08T05:28:35;18.20;62.30
82231;DHT22;71832;45.138;9.816;2023-08-08T05:31:03;18.30;62.80
82231;DHT22;71832;45.138;9.816;2023-08-08T05:33:30;18.30;62.50
82231;DHT22;71832;45.138;9.816;2023-08-08T05:35:57;18.40;62.00
82231;DHT22;71832;45.138;9.816;2023-08-08T05:38:25;18.40;61.70
82231;DHT22;71832;45.138;9.816;2023-08-08T05:40:52;18.50;62.30
82231;DHT22;71832;45.138;9.816;2023-08-08T05:43:20;18.50;62.00
82231;DHT22;71832;45.138;9.816;2023-08-08T05:45:48;18.60;62.00
82231;DHT22;71832;45.138;9.816;2023-08-08T05:48:17;18.70;62.80
82231;DHT22;71832;45.138;9.816;2023-08-08T05:50:45;18.70;62.90
82231;DHT22;71832;45.138;9.816;2023-08-08T05:53:14;18.70;62.60
82231;DHT22;71832;45.138;9.816;2023-08-08T05:55:42;18.70;62.00
82231;DHT22;71832;45.138;9.816;2023-08-08T05:58:10;18.80;62.90
82231;DHT22;71832;45.138;9.816;2023-08-08T06:00:38;18.70;64.30
82231;DHT22;71832;45.138;9.816;2023-08-08T06:03:05;18.80;63.70
82231;DHT22;71832;45.138;9.816;2023-08-08T06:05:34;18.80;63.00
82231;DHT22;71832;45.138;9.816;2023-08-08T06:08:02;18.90;63.70
82231;DHT22;71832;45.138;9.816;2023-08-08T06:10:33;19.00;62.90
82231;DHT22;71832;45.138;9.816;2023-08-08T06:13:01;19.00;63.20
82231;DHT22;71832;45.138;9.816;2023-08-08T06:15:29;19.00;63.70
82231;DHT22;71832;45.138;9.816;2023-08-08T06:17:58;19.10;64.60
82231;DHT22;71832;45.138;9.816;2023-08-08T06:20:27;19.30;64.50
82231;DHT22;71832;45.138;9.816;2023-08-08T06:22:55;19.40;64.10
82231;DHT22;71832;45.138;9.816;2023-08-08T06:25:26;19.50;63.00
82231;DHT22;71832;45.138;9.816;2023-08-08T06:27:55;19.70;62.60
82231;DHT22;71832;45.138;9.816;2023-08-08T06:30:24;19.70;62.30
82231;DHT22;71832;45.138;9.816;2023-08-08T06:32:53;19.90;59.70
82231;DHT22;71832;45.138;9.816;2023-08-08T06:35:21;20.00;58.20
82231;DHT22;71832;45.138;9.816;2023-08-08T06:37:49;20.30;56.90
82231;DHT22;71832;45.138;9.816;2023-08-08T06:40:17;20.40;55.60
82231;DHT22;71832;45.138;9.816;2023-08-08T06:42:45;20.50;55.00
82231;DHT22;71832;45.138;9.816;2023-08-08T06:45:12;20.60;55.00
82231;DHT22;71832;45.138;9.816;2023-08-08T06:47:40;20.70;54.10
82231;DHT22;71832;45.138;9.816;2023-08-08T06:50:08;20.80;52.50
82231;DHT22;71832;45.138;9.816;2023-08-08T06:52:36;20.90;52.70
82231;DHT22;71832;45.138;9.816;2023-08-08T06:55:03;21.00;52.00
82231;DHT22;71832;45.138;9.816;2023-08-08T06:57:33;21.10;51.60
82231;DHT22;71832;45.138;9.816;2023-08-08T07:00:03;21.10;51.50
82231;DHT22;71832;45.138;9.816;2023-08-08T07:02:33;21.30;51.50
82231;DHT22;71832;45.138;9.816;2023-08-08T07:05:01;21.40;51.90
82231;DHT22;71832;45.138;9.816;2023-08-08T07:07:31;21.50;51.20
82231;DHT22;71832;45.138;9.816;2023-08-08T07:10:00;21.50;50.90
82231;DHT22;71832;45.138;9.816;2023-08-08T07:12:28;21.70;51.20
82231;DHT22;71832;45.138;9.816;2023-08-08T07:14:57;21.90;51.40
82231;DHT22;71832;45.138;9.816;2023-08-08T07:17:26;22.00;50.50
82231;DHT22;71832;45.138;9.816;2023-08-08T07:19:54;22.10;50.00
82231;DHT22;71832;45.138;9.816;2023-08-08T07:22:23;22.30;49.40
82231;DHT22;71832;45.138;9.816;2023-08-08T07:24:52;22.50;49.40
82231;DHT22;71832;45.138;9.816;2023-08-08T07:27:21;22.50;46.80
82231;DHT22;71832;45.138;9.816;2023-08-08T07:29:49;22.60;46.50
82231;DHT22;71832;45.138;9.816;2023-08-08T07:32:18;22.60;46.50
82231;DHT22;71832;45.138;9.816;2023-08-08T07:34:47;22.70;46.40
82231;DHT22;71832;45.138;9.816;2023-08-08T07:37:15;22.80;45.80
82231;DHT22;71832;45.138;9.816;2023-08-08T07:39:45;22.90;46.10
82231;DHT22;71832;45.138;9.816;2023-08-08T07:42:14;23.00;46.30
82231;DHT22;71832;45.138;9.816;2023-08-08T07:44:42;23.20;46.00
82231;DHT22;71832;45.138;9.816;2023-08-08T07:47:11;23.30;45.40
82231;DHT22;71832;45.138;9.816;2023-08-08T07:49:40;23.50;44.60
82231;DHT22;71832;45.138;9.816;2023-08-08T07:52:09;23.60;44.20
82231;DHT22;71832;45.138;9.816;2023-08-08T07:54:38;23.60;44.00
82231;DHT22;71832;45.138;9.816;2023-08-08T07:57:07;23.60;43.80
82231;DHT22;71832;45.138;9.816;2023-08-08T07:59:35;23.60;43.50
82231;DHT22;71832;45.138;9.816;2023-08-08T08:02:04;23.50;43.70
82231;DHT22;71832;45.138;9.816;2023-08-08T08:04:33;23.50;43.90
82231;DHT22;71832;45.138;9.816;2023-08-08T08:07:02;23.40;44.80
82231;DHT22;71832;45.138;9.816;2023-08-08T08:09:31;23.40;45.00
82231;DHT22;71832;45.138;9.816;2023-08-08T08:12:00;23.40;45.00
82231;DHT22;71832;45.138;9.816;2023-08-08T08:14:29;23.50;44.90
82231;DHT22;71832;45.138;9.816;2023-08-08T08:16:57;23.60;45.70
82231;DHT22;71832;45.138;9.816;2023-08-08T08:19:26;23.60;45.10
82231;DHT22;71832;45.138;9.816;2023-08-08T08:21:55;23.80;45.30
82231;DHT22;71832;45.138;9.816;2023-08-08T08:24:23;24.00;44.70
82231;DHT22;71832;45.138;9.816;2023-08-08T08:26:51;24.10;44.20
82231;DHT22;71832;45.138;9.816;2023-08-08T08:29:20;24.20;43.80
82231;DHT22;71832;45.138;9.816;2023-08-08T08:31:48;24.20;42.80
82231;DHT22;71832;45.138;9.816;2023-08-08T08:34:17;24.30;42.70
82231;DHT22;71832;45.138;9.816;2023-08-08T08:36:45;24.40;42.80
82231;DHT22;71832;45.138;9.816;2023-08-08T08:39:13;24.40;42.60
82231;DHT22;71832;45.138;9.816;2023-08-08T08:41:40;24.30;42.30
82231;DHT22;71832;45.138;9.816;2023-08-08T08:44:08;24.30;42.80
82231;DHT22;71832;45.138;9.816;2023-08-08T08:46:36;24.20;43.40
82231;DHT22;71832;45.138;9.816;2023-08-08T08:49:06;24.20;43.20
82231;DHT22;71832;45.138;9.816;2023-08-08T08:51:36;24.30;44.00
82231;DHT22;71832;45.138;9.816;2023-08-08T08:54:04;24.40;44.00
82231;DHT22;71832;45.138;9.816;2023-08-08T08:56:33;24.40;44.20
82231;DHT22;71832;45.138;9.816;2023-08-08T08:59:02;24.50;43.70
82231;DHT22;71832;45.138;9.816;2023-08-08T09:01:30;24.60;42.20
82231;DHT22;71832;45.138;9.816;2023-08-08T09:03:59;24.70;44.60
82231;DHT22;71832;45.138;9.816;2023-08-08T09:06:29;24.80;43.40
82231;DHT22;71832;45.138;9.816;2023-08-08T09:08:58;24.90;44.20
82231;DHT22;71832;45.138;9.816;2023-08-08T09:11:26;25.00;44.00
82231;DHT22;71832;45.138;9.816;2023-08-08T09:13:55;25.20;43.60
82231;DHT22;71832;45.138;9.816;2023-08-08T09:16:24;25.20;42.80
82231;DHT22;71832;45.138;9.816;2023-08-08T09:18:53;25.10;42.40
82231;DHT22;71832;45.138;9.816;2023-08-08T09:21:21;25.10;42.20
82231;DHT22;71832;45.138;9.816;2023-08-08T09:23:50;25.10;41.70
82231;DHT22;71832;45.138;9.816;2023-08-08T09:26:19;25.10;40.50
82231;DHT22;71832;45.138;9.816;2023-08-08T09:28:47;25.10;42.30
82231;DHT22;71832;45.138;9.816;2023-08-08T09:31:16;25.20;44.10
82231;DHT22;71832;45.138;9.816;2023-08-08T09:33:44;25.20;43.80
82231;DHT22;71832;45.138;9.816;2023-08-08T09:36:15;25.30;44.40
82231;DHT22;71832;45.138;9.816;2023-08-08T09:38:43;25.40;44.00
82231;DHT22;71832;45.138;9.816;2023-08-08T09:41:13;25.40;43.60
82231;DHT22;71832;45.138;9.816;2023-08-08T09:43:44;25.40;42.90
82231;DHT22;71832;45.138;9.816;2023-08-08T09:46:12;25.40;43.60
82231;DHT22;71832;45.138;9.816;2023-08-08T09:48:42;25.40;43.60
82231;DHT22;71832;45.138;9.816;2023-08-08T09:51:10;25.40;43.30
82231;DHT22;71832;45.138;9.816;2023-08-08T09:53:39;25.50;43.60
82231;DHT22;71832;45.138;9.816;2023-08-08T09:56:07;25.60;44.10
82231;DHT22;71832;45.138;9.816;2023-08-08T09:58:36;25.60;43.40
82231;DHT22;71832;45.138;9.816;2023-08-08T10:01:06;25.60;44.30
82231;DHT22;71832;45.138;9.816;2023-08-08T10:03:35;25.80;43.70
82231;DHT22;71832;45.138;9.816;2023-08-08T10:06:04;25.80;43.60
82231;DHT22;71832;45.138;9.816;2023-08-08T10:08:32;25.80;43.40
82231;DHT22;71832;45.138;9.816;2023-08-08T10:11:00;25.80;42.90
82231;DHT22;71832;45.138;9.816;2023-08-08T10:13:28;25.80;41.60
82231;DHT22;71832;45.138;9.816;2023-08-08T10:15:56;25.80;43.70
82231;DHT22;71832;45.138;9.816;2023-08-08T10:18:26;25.90;44.60
82231;DHT22;71832;45.138;9.816;2023-08-08T10:20:53;25.90;44.20
82231;DHT22;71832;45.138;9.816;2023-08-08T10:23:21;26.00;43.70
82231;DHT22;71832;45.138;9.816;2023-08-08T10:25:51;26.10;43.50
82231;DHT22;71832;45.138;9.816;2023-08-08T10:28:21;26.10;44.40
82231;DHT22;71832;45.138;9.816;2023-08-08T10:30:59;26.20;43.40
82231;DHT22;71832;45.138;9.816;2023-08-08T10:33:40;26.10;41.90
82231;DHT22;71832;45.138;9.816;2023-08-08T10:36:10;26.10;42.60
82231;DHT22;71832;45.138;9.816;2023-08-08T10:38:44;26.10;42.90
82231;DHT22;71832;45.138;9.816;2023-08-08T10:41:16;26.10;43.30
82231;DHT22;71832;45.138;9.816;2023-08-08T10:43:54;26.20;43.80
82231;DHT22;71832;45.138;9.816;2023-08-08T10:46:32;26.30;44.50
82231;DHT22;71832;45.138;9.816;2023-08-08T10:49:04;26.40;42.10
82231;DHT22;71832;45.138;9.816;2023-08-08T10:51:43;26.40;42.70
82231;DHT22;71832;45.138;9.816;2023-08-08T10:54:15;26.40;43.60
82231;DHT22;71832;45.138;9.816;2023-08-08T10:59:21;26.50;42.90
82231;DHT22;71832;45.138;9.816;2023-08-08T11:01:51;26.50;42.70
82231;DHT22;71832;45.138;9.816;2023-08-08T11:04:22;26.50;41.50
82231;DHT22;71832;45.138;9.816;2023-08-08T11:06:54;26.60;41.80
82231;DHT22;71832;45.138;9.816;2023-08-08T11:09:24;26.60;41.10
82231;DHT22;71832;45.138;9.816;2023-08-08T11:11:53;26.60;41.20
82231;DHT22;71832;45.138;9.816;2023-08-08T11:14:22;26.60;41.70
82231;DHT22;71832;45.138;9.816;2023-08-08T11:16:52;26.70;42.10
82231;DHT22;71832;45.138;9.816;2023-08-08T11:19:21;26.70;42.00
82231;DHT22;71832;45.138;9.816;2023-08-08T11:21:50;26.80;41.90
82231;DHT22;71832;45.138;9.816;2023-08-08T11:24:19;26.80;41.80
82231;DHT22;71832;45.138;9.816;2023-08-08T11:26:48;26.80;40.80
82231;DHT22;71832;45.138;9.816;2023-08-08T11:29:18;26.80;41.20
82231;DHT22;71832;45.138;9.816;2023-08-08T11:31:49;26.90;41.70
82231;DHT22;71832;45.138;9.816;2023-08-08T11:34:18;26.90;40.30
82231;DHT22;71832;45.138;9.816;2023-08-08T11:36:47;27.00;40.40
82231;DHT22;71832;45.138;9.816;2023-08-08T11:39:15;27.00;40.50
82231;DHT22;71832;45.138;9.816;2023-08-08T11:41:43;27.10;40.00
82231;DHT22;71832;45.138;9.816;2023-08-08T11:44:12;27.10;39.70
82231;DHT22;71832;45.138;9.816;2023-08-08T11:46:45;27.20;40.30
82231;DHT22;71832;45.138;9.816;2023-08-08T11:49:15;27.20;42.10
82231;DHT22;71832;45.138;9.816;2023-08-08T11:51:44;27.30;40.30
82231;DHT22;71832;45.138;9.816;2023-08-08T11:54:13;27.40;39.80
82231;DHT22;71832;45.138;9.816;2023-08-08T11:56:43;27.40;37.70
82231;DHT22;71832;45.138;9.816;2023-08-08T11:59:10;27.40;38.50
82231;DHT22;71832;45.138;9.816;2023-08-08T12:01:39;27.40;39.00
82231;DHT22;71832;45.138;9.816;2023-08-08T12:04:09;27.40;37.70
82231;DHT22;71832;45.138;9.816;2023-08-08T12:06:38;27.50;38.20
82231;DHT22;71832;45.138;9.816;2023-08-08T12:09:06;27.50;38.20
82231;DHT22;71832;45.138;9.816;2023-08-08T12:11:36;27.60;38.10
82231;DHT22;71832;45.138;9.816;2023-08-08T12:14:06;27.50;35.80
82231;DHT22;71832;45.138;9.816;2023-08-08T12:16:38;27.50;36.00
82231;DHT22;71832;45.138;9.816;2023-08-08T12:19:08;27.50;37.00
82231;DHT22;71832;45.138;9.816;2023-08-08T12:21:37;27.60;38.00
82231;DHT22;71832;45.138;9.816;2023-08-08T12:24:06;27.70;37.90
82231;DHT22;71832;45.138;9.816;2023-08-08T12:26:35;27.70;37.10
82231;DHT22;71832;45.138;9.816;2023-08-08T12:29:04;27.80;36.50
82231;DHT22;71832;45.138;9.816;2023-08-08T12:31:32;27.80;36.50
82231;DHT22;71832;45.138;9.816;2023-08-08T12:34:01;27.90;36.10
82231;DHT22;71832;45.138;9.816;2023-08-08T12:36:29;27.90;34.70
82231;DHT22;71832;45.138;9.816;2023-08-08T12:38:57;27.90;35.10
82231;DHT22;71832;45.138;9.816;2023-08-08T12:41:25;27.90;32.60
82231;DHT22;71832;45.138;9.816;2023-08-08T12:43:53;27.90;32.90
82231;DHT22;71832;45.138;9.816;2023-08-08T12:46:21;27.80;32.70
82231;DHT22;71832;45.138;9.816;2023-08-08T12:48:50;27.80;34.00
82231;DHT22;71832;45.138;9.816;2023-08-08T12:51:18;27.90;34.80
82231;DHT22;71832;45.138;9.816;2023-08-08T12:53:46;27.90;33.00
82231;DHT22;71832;45.138;9.816;2023-08-08T12:56:13;28.00;33.90
82231;DHT22;71832;45.138;9.816;2023-08-08T12:58:41;28.00;33.80
82231;DHT22;71832;45.138;9.816;2023-08-08T13:01:10;28.00;33.70
82231;DHT22;71832;45.138;9.816;2023-08-08T13:03:39;28.10;33.20
82231;DHT22;71832;45.138;9.816;2023-08-08T13:06:07;28.10;33.00
82231;DHT22;71832;45.138;9.816;2023-08-08T13:08:37;28.10;32.40
82231;DHT22;71832;45.138;9.816;2023-08-08T13:11:07;28.10;35.00
82231;DHT22;71832;45.138;9.816;2023-08-08T13:13:36;28.10;35.10
82231;DHT22;71832;45.138;9.816;2023-08-08T13:16:04;28.10;34.60
82231;DHT22;71832;45.138;9.816;2023-08-08T13:18:32;28.20;35.00
82231;DHT22;71832;45.138;9.816;2023-08-08T13:21:01;28.20;35.70
82231;DHT22;71832;45.138;9.816;2023-08-08T13:23:29;28.30;36.90
82231;DHT22;71832;45.138;9.816;2023-08-08T13:25:56;28.30;34.40
82231;DHT22;71832;45.138;9.816;2023-08-08T13:28:24;28.50;34.50
82231;DHT22;71832;45.138;9.816;2023-08-08T13:30:52;28.50;33.60
82231;DHT22;71832;45.138;9.816;2023-08-08T13:33:21;28.50;34.20
82231;DHT22;71832;45.138;9.816;2023-08-08T13:35:49;28.50;34.80
82231;DHT22;71832;45.138;9.816;2023-08-08T13:38:16;28.60;35.50
82231;DHT22;71832;45.138;9.816;2023-08-08T13:40:44;28.70;34.10
82231;DHT22;71832;45.138;9.816;2023-08-08T13:43:12;28.80;33.50
82231;DHT22;71832;45.138;9.816;2023-08-08T13:45:39;28.80;34.70
82231;DHT22;71832;45.138;9.816;2023-08-08T13:48:08;28.90;33.20
82231;DHT22;71832;45.138;9.816;2023-08-08T13:50:37;28.90;34.50
82231;DHT22;71832;45.138;9.816;2023-08-08T13:53:06;28.90;33.40
82231;DHT22;71832;45.138;9.816;2023-08-08T13:55:34;29.00;33.40
82231;DHT22;71832;45.138;9.816;2023-08-08T13:58:07;29.00;33.30
82231;DHT22;71832;45.138;9.816;2023-08-08T14:00:36;29.00;34.70
82231;DHT22;71832;45.138;9.816;2023-08-08T14:03:05;29.10;34.50
82231;DHT22;71832;45.138;9.816;2023-08-08T14:05:33;29.20;33.60
82231;DHT22;71832;45.138;9.816;2023-08-08T14:08:00;29.20;32.30
82231;DHT22;71832;45.138;9.816;2023-08-08T14:10:28;29.20;33.60
82231;DHT22;71832;45.138;9.816;2023-08-08T14:12:56;29.30;34.90
82231;DHT22;71832;45.138;9.816;2023-08-08T14:15:24;29.40;33.10
82231;DHT22;71832;45.138;9.816;2023-08-08T14:17:53;29.40;33.00
82231;DHT22;71832;45.138;9.816;2023-08-08T14:20:22;29.50;33.40
82231;DHT22;71832;45.138;9.816;2023-08-08T14:22:51;29.50;33.70
82231;DHT22;71832;45.138;9.816;2023-08-08T14:25:19;29.50;33.00
82231;DHT22;71832;45.138;9.816;2023-08-08T14:27:48;29.50;32.00
82231;DHT22;71832;45.138;9.816;2023-08-08T14:30:18;29.40;31.70
82231;DHT22;71832;45.138;9.816;2023-08-08T14:32:48;29.20;32.70
82231;DHT22;71832;45.138;9.816;2023-08-08T14:35:17;29.30;33.00
82231;DHT22;71832;45.138;9.816;2023-08-08T14:37:45;29.20;32.40
82231;DHT22;71832;45.138;9.816;2023-08-08T14:40:14;29.20;32.10
82231;DHT22;71832;45.138;9.816;2023-08-08T14:42:42;29.20;32.90
82231;DHT22;71832;45.138;9.816;2023-08-08T14:45:10;29.20;32.70
82231;DHT22;71832;45.138;9.816;2023-08-08T14:47:38;29.20;32.50
82231;DHT22;71832;45.138;9.816;2023-08-08T14:50:07;29.20;32.50
82231;DHT22;71832;45.138;9.816;2023-08-08T14:52:35;29.30;32.20
82231;DHT22;71832;45.138;9.816;2023-08-08T14:55:03;29.30;32.60
82231;DHT22;71832;45.138;9.816;2023-08-08T14:57:32;29.20;32.60
82231;DHT22;71832;45.138;9.816;2023-08-08T15:00:04;29.20;32.70
82231;DHT22;71832;45.138;9.816;2023-08-08T15:02:33;29.30;33.20
82231;DHT22;71832;45.138;9.816;2023-08-08T15:05:02;29.20;32.70
82231;DHT22;71832;45.138;9.816;2023-08-08T15:07:31;29.20;33.10
82231;DHT22;71832;45.138;9.816;2023-08-08T15:09:59;29.30;33.10
82231;DHT22;71832;45.138;9.816;2023-08-08T15:12:28;29.30;32.70
82231;DHT22;71832;45.138;9.816;2023-08-08T15:14:57;29.40;33.00
82231;DHT22;71832;45.138;9.816;2023-08-08T15:17:26;29.40;33.00
82231;DHT22;71832;45.138;9.816;2023-08-08T15:19:55;29.50;32.60
82231;DHT22;71832;45.138;9.816;2023-08-08T15:22:24;29.50;32.00
82231;DHT22;71832;45.138;9.816;2023-08-08T15:24:52;29.50;32.00
82231;DHT22;71832;45.138;9.816;2023-08-08T15:27:20;29.50;31.30
82231;DHT22;71832;45.138;9.816;2023-08-08T15:29:49;29.50;31.00
82231;DHT22;71832;45.138;9.816;2023-08-08T15:32:17;29.50;31.40
82231;DHT22;71832;45.138;9.816;2023-08-08T15:34:45;29.60;31.30
82231;DHT22;71832;45.138;9.816;2023-08-08T15:37:13;29.60;31.30
82231;DHT22;71832;45.138;9.816;2023-08-08T15:39:41;29.70;31.80
82231;DHT22;71832;45.138;9.816;2023-08-08T15:42:09;29.70;32.00